sensor_id;sensor_type;location;lat;lon;timestamp;pressure;altitude;pressure_sealevel;temperature;humidity
8575;BME280;4325;42.520;27.448;2023-05-25T00:00:17;100956.16;;;16.54;100.00
8575;BME280;4325;42.520;27.448;2023-05-25T00:02:45;100956.44;;;16.52;100.00
8575;BME280;4325;42.520;27.448;2023-05-25T00:05:12;100956.66;;;16.56;100.00
8575;BME280;4325;42.520;27.448;2023-05-25T00:07:41;100946.63;;;16.60;100.00
8575;BME280;4325;42.520;27.448;2023-05-25T00:10:08;100939.47;;;16.59;100.00
8575;BME280;4325;42.520;27.448;2023-05-25T00:12:35;100951.75;;;16.53;100.00
8575;BME280;4325;42.520;27.448;2023-05-25T00:15:02;100944.59;;;16.52;100.00
8575;BME280;4325;42.520;27.448;2023-05-25T00:17:29;100951.97;;;16.57;100.00
8575;BME280;4325;42.520;27.448;2023-05-25T00:19:57;100946.63;;;16.60;100.00
8575;BME280;4325;42.520;27.448;2023-05-25T00:22:31;100948.28;;;16.61;100.00
8575;BME280;4325;42.520;27.448;2023-05-25T00:25:00;100951.66;;;16.58;100.00
8575;BME280;4325;42.520;27.448;2023-05-25T00:27:27;100952.16;;;16.60;100.00
8575;BME280;4325;42.520;27.448;2023-05-25T00:29:53;100954.13;;;16.60;100.00
8575;BME280;4325;42.520;27.448;2023-05-25T00:32:20;100957.16;;;16.58;100.00
8575;BME280;4325;42.520;27.448;2023-05-25T00:34:47;100948.28;;;16.61;100.00
8575;BME280;4325;42.520;27.448;2023-05-25T00:37:14;100948.88;;;16.58;100.00
8575;BME280;4325;42.520;27.448;2023-05-25T00:39:41;100943.44;;;16.53;100.00
8575;BME280;4325;42.520;27.448;2023-05-25T00:42:09;100948.97;;;16.53;100.00
8575;BME280;4325;42.520;27.448;2023-05-25T00:44:37;100952.63;;;16.48;100.00
8575;BME280;4325;42.520;27.448;2023-05-25T00:47:04;100949.28;;;16.52;100.00
8575;BME280;4325;42.520;27.448;2023-05-25T00:49:33;100947.91;;;16.35;100.00
8575;BME280;4325;42.520;27.448;2023-05-25T00:52:01;100948.91;;;16.26;100.00
8575;BME280;4325;42.520;27.448;2023-05-25T00:54:28;100947.97;;;16.17;100.00
8575;BME280;4325;42.520;27.448;2023-05-25T00:57:00;100949.72;;;16.13;100.00
8575;BME280;4325;42.520;27.448;2023-05-25T00:59:34;100955.75;;;16.15;100.00
8575;BME280;4325;42.520;27.448;2023-05-25T01:02:07;100954.00;;;16.19;100.00
8575;BME280;4325;42.520;27.448;2023-05-25T01:04:37;100944.59;;;16.20;100.00
8575;BME280;4325;42.520;27.448;2023-05-25T01:07:05;100943.47;;;16.21;100.00
8575;BME280;4325;42.520;27.448;2023-05-25T01:09:34;100945.13;;;16.22;100.00
8575;BME280;4325;42.520;27.448;2023-05-25T01:12:04;100946.22;;;16.21;100.00
8575;BME280;4325;42.520;27.448;2023-05-25T01:14:33;100942.25;;;16.27;100.00
8575;BME280;4325;42.520;27.448;2023-05-25T01:17:00;100939.19;;;16.28;100.00
8575;BME280;4325;42.520;27.448;2023-05-25T01:19:28;100937.75;;;16.31;100.00
8575;BME280;4325;42.520;27.448;2023-05-25T01:22:02;100933.28;;;16.35;100.00
8575;BME280;4325;42.520;27.448;2023-05-25T01:24:33;100940.84;;;16.43;100.00
8575;BME280;4325;42.520;27.448;2023-05-25T01:27:10;100925.91;;;16.44;100.00
8575;BME280;4325;42.520;27.448;2023-05-25T01:29:41;100927.75;;;16.48;100.00
8575;BME280;4325;42.520;27.448;2023-05-25T01:32:09;100929.63;;;16.53;100.00
8575;BME280;4325;42.520;27.448;2023-05-25T01:34:37;100927.38;;;16.55;100.00
8575;BME280;4325;42.520;27.448;2023-05-25T01:37:06;100930.69;;;16.57;100.00
8575;BME280;4325;42.520;27.448;2023-05-25T01:39:33;100925.75;;;16.54;100.00
8575;BME280;4325;42.520;27.448;2023-05-25T01:42:00;100924.59;;;16.55;100.00
8575;BME280;4325;42.520;27.448;2023-05-25T01:44:27;100926.31;;;16.51;100.00
8575;BME280;4325;42.520;27.448;2023-05-25T01:47:02;100930.19;;;16.50;100.00
8575;BME280;4325;42.520;27.448;2023-05-25T01:49:33;100939.72;;;16.44;100.00
8575;BME280;4325;42.520;27.448;2023-05-25T01:52:09;100934.63;;;16.37;100.00
8575;BME280;4325;42.520;27.448;2023-05-25T01:54:43;100937.75;;;16.31;100.00
8575;BME280;4325;42.520;27.448;2023-05-25T01:57:12;100940.00;;;16.29;100.00
8575;BME280;4325;42.520;27.448;2023-05-25T01:59:43;100941.94;;;16.28;100.00
8575;BME280;4325;42.520;27.448;2023-05-25T02:02:13;100935.91;;;16.26;100.00
8575;BME280;4325;42.520;27.448;2023-05-25T02:04:41;100947.28;;;16.25;100.00
8575;BME280;4325;42.520;27.448;2023-05-25T02:07:09;100949.53;;;16.23;100.00
8575;BME280;4325;42.520;27.448;2023-05-25T02:09:36;100943.78;;;16.19;100.00
8575;BME280;4325;42.520;27.448;2023-05-25T02:12:04;100947.38;;;16.20;100.00
8575;BME280;4325;42.520;27.448;2023-05-25T02:14:31;100950.72;;;16.17;100.00
8575;BME280;4325;42.520;27.448;2023-05-25T02:16:58;100946.34;;;16.16;100.00
8575;BME280;4325;42.520;27.448;2023-05-25T02:19:28;100946.94;;;16.13;100.00
8575;BME280;4325;42.520;27.448;2023-05-25T02:21:55;100949.56;;;16.04;100.00
8575;BME280;4325;42.520;27.448;2023-05-25T02:24:24;100938.09;;;15.97;100.00
8575;BME280;4325;42.520;27.448;2023-05-25T02:26:51;100953.84;;;15.97;100.00
8575;BME280;4325;42.520;27.448;2023-05-25T02:29:18;100949.38;;;16.01;100.00
8575;BME280;4325;42.520;27.448;2023-05-25T02:31:45;100950.81;;;15.98;100.00
8575;BME280;4325;42.520;27.448;2023-05-25T02:34:12;100963.78;;;15.98;100.00
8575;BME280;4325;42.520;27.448;2023-05-25T02:36:40;100964.09;;;15.96;100.00
8575;BME280;4325;42.520;27.448;2023-05-25T02:41:54;100963.44;;;15.85;100.00
8575;BME280;4325;42.520;27.448;2023-05-25T02:44:21;100965.25;;;15.76;100.00
8575;BME280;4325;42.520;27.448;2023-05-25T02:46:48;100977.31;;;15.80;100.00
8575;BME280;4325;42.520;27.448;2023-05-25T02:49:15;100973.13;;;15.83;100.00
8575;BME280;4325;42.520;27.448;2023-05-25T02:51:42;100972.38;;;15.77;100.00
8575;BME280;4325;42.520;27.448;2023-05-25T02:54:09;100982.31;;;15.78;100.00
8575;BME280;4325;42.520;27.448;2023-05-25T02:56:36;100978.22;;;15.76;100.00
8575;BME280;4325;42.520;27.448;2023-05-25T02:59:04;100981.94;;;15.85;100.00
8575;BME280;4325;42.520;27.448;2023-05-25T03:01:32;100984.50;;;15.81;100.00
8575;BME280;4325;42.520;27.448;2023-05-25T03:03:59;100981.19;;;15.79;100.00
8575;BME280;4325;42.520;27.448;2023-05-25T03:06:26;100990.53;;;15.83;100.00
8575;BME280;4325;42.520;27.448;2023-05-25T03:08:53;100983.94;;;15.79;100.00
8575;BME280;4325;42.520;27.448;2023-05-25T03:11:19;100987.75;;;15.83;100.00
8575;BME280;4325;42.520;27.448;2023-05-25T03:13:46;100992.84;;;15.76;100.00
8575;BME280;4325;42.520;27.448;2023-05-25T03:16:15;100997.75;;;15.79;100.00
8575;BME280;4325;42.520;27.448;2023-05-25T03:18:42;100993.66;;;15.77;100.00
8575;BME280;4325;42.520;27.448;2023-05-25T03:21:08;100991.78;;;15.72;100.00
8575;BME280;4325;42.520;27.448;2023-05-25T03:23:35;100997.31;;;15.72;100.00
8575;BME280;4325;42.520;27.448;2023-05-25T03:26:02;100990.16;;;15.71;100.00
8575;BME280;4325;42.520;27.448;2023-05-25T03:28:29;100992.94;;;15.71;100.00
8575;BME280;4325;42.520;27.448;2023-05-25T03:30:56;100995.84;;;15.61;100.00
8575;BME280;4325;42.520;27.448;2023-05-25T03:33:24;100996.44;;;15.58;100.00
8575;BME280;4325;42.520;27.448;2023-05-25T03:35:51;101001.75;;;15.55;100.00
8575;BME280;4325;42.520;27.448;2023-05-25T03:38:18;101003.50;;;15.46;100.00
8575;BME280;4325;42.520;27.448;2023-05-25T03:40:45;101006.50;;;15.49;100.00
8575;BME280;4325;42.520;27.448;2023-05-25T03:43:12;101004.69;;;15.40;100.00
8575;BME280;4325;42.520;27.448;2023-05-25T03:45:39;101012.06;;;15.44;100.00
8575;BME280;4325;42.520;27.448;2023-05-25T03:48:06;101000.69;;;15.27;100.00
8575;BME280;4325;42.520;27.448;2023-05-25T03:50:34;101013.41;;;15.28;100.00
8575;BME280;4325;42.520;27.448;2023-05-25T03:53:01;101019.78;;;15.47;100.00
8575;BME280;4325;42.520;27.448;2023-05-25T03:55:28;101020.16;;;15.59;100.00
8575;BME280;4325;42.520;27.448;2023-05-25T03:57:55;101014.31;;;15.79;100.00
8575;BME280;4325;42.520;27.448;2023-05-25T04:00:22;101016.84;;;15.95;100.00
8575;BME280;4325;42.520;27.448;2023-05-25T04:02:49;101019.88;;;16.12;100.00
8575;BME280;4325;42.520;27.448;2023-05-25T04:05:16;101025.31;;;16.17;100.00
8575;BME280;4325;42.520;27.448;2023-05-25T04:07:44;101017.47;;;16.24;100.00
8575;BME280;4325;42.520;27.448;2023-05-25T04:10:11;101026.16;;;16.17;100.00
8575;BME280;4325;42.520;27.448;2023-05-25T04:12:38;101019.28;;;16.15;100.00
8575;BME280;4325;42.520;27.448;2023-05-25T04:15:06;101028.59;;;16.19;100.00
8575;BME280;4325;42.520;27.448;2023-05-25T04:17:33;101021.06;;;16.24;100.00
8575;BME280;4325;42.520;27.448;2023-05-25T04:20:00;101026.41;;;16.34;100.00
8575;BME280;4325;42.520;27.448;2023-05-25T04:22:28;101023.81;;;16.24;100.00
8575;BME280;4325;42.520;27.448;2023-05-25T04:24:56;101032.25;;;16.33;100.00
8575;BME280;4325;42.520;27.448;2023-05-25T04:27:23;101028.84;;;16.36;100.00
8575;BME280;4325;42.520;27.448;2023-05-25T04:29:50;101022.13;;;16.42;100.00
8575;BME280;4325;42.520;27.448;2023-05-25T04:32:18;101026.00;;;16.41;100.00
8575;BME280;4325;42.520;27.448;2023-05-25T04:34:46;101033.38;;;16.45;100.00
8575;BME280;4325;42.520;27.448;2023-05-25T04:37:13;101034.91;;;16.38;100.00
8575;BME280;4325;42.520;27.448;2023-05-25T04:39:39;101039.22;;;16.44;100.00
8575;BME280;4325;42.520;27.448;2023-05-25T04:42:08;101039.75;;;16.46;100.00
8575;BME280;4325;42.520;27.448;2023-05-25T04:44:35;101042.34;;;16.56;100.00
8575;BME280;4325;42.520;27.448;2023-05-25T04:47:02;101042.00;;;16.76;100.00
8575;BME280;4325;42.520;27.448;2023-05-25T04:49:29;101034.31;;;17.00;100.00
8575;BME280;4325;42.520;27.448;2023-05-25T04:51:56;101036.16;;;16.91;100.00
8575;BME280;4325;42.520;27.448;2023-05-25T04:54:22;101033.91;;;17.07;100.00
8575;BME280;4325;42.520;27.448;2023-05-25T04:56:49;101036.38;;;17.22;100.00
8575;BME280;4325;42.520;27.448;2023-05-25T04:59:18;101035.53;;;17.22;100.00
8575;BME280;4325;42.520;27.448;2023-05-25T05:01:45;101039.63;;;17.38;100.00
8575;BME280;4325;42.520;27.448;2023-05-25T05:04:12;101039.31;;;17.39;100.00
8575;BME280;4325;42.520;27.448;2023-05-25T05:06:40;101041.47;;;17.42;100.00
8575;BME280;4325;42.520;27.448;2023-05-25T05:09:07;101045.34;;;17.55;100.00
8575;BME280;4325;42.520;27.448;2023-05-25T05:11:34;101044.28;;;17.78;100.00
8575;BME280;4325;42.520;27.448;2023-05-25T05:14:01;101038.59;;;17.61;100.00
8575;BME280;4325;42.520;27.448;2023-05-25T05:16:29;101047.72;;;17.97;100.00
8575;BME280;4325;42.520;27.448;2023-05-25T05:18:59;101043.31;;;18.18;100.00
8575;BME280;4325;42.520;27.448;2023-05-25T05:21:26;101034.75;;;18.51;100.00
8575;BME280;4325;42.520;27.448;2023-05-25T05:23:53;101042.78;;;18.83;100.00
8575;BME280;4325;42.520;27.448;2023-05-25T05:26:22;101046.31;;;18.75;100.00
8575;BME280;4325;42.520;27.448;2023-05-25T05:28:49;101044.88;;;19.25;100.00
8575;BME280;4325;42.520;27.448;2023-05-25T05:31:17;101045.84;;;19.77;100.00
8575;BME280;4325;42.520;27.448;2023-05-25T05:33:45;101034.91;;;20.15;100.00
8575;BME280;4325;42.520;27.448;2023-05-25T05:36:12;101044.22;;;20.02;100.00
8575;BME280;4325;42.520;27.448;2023-05-25T05:38:39;101042.25;;;20.11;100.00
8575;BME280;4325;42.520;27.448;2023-05-25T05:41:06;101047.00;;;20.19;100.00
8575;BME280;4325;42.520;27.448;2023-05-25T05:43:38;101041.78;;;20.09;100.00
8575;BME280;4325;42.520;27.448;2023-05-25T05:46:07;101050.25;;;19.87;100.00
8575;BME280;4325;42.520;27.448;2023-05-25T05:48:34;101053.84;;;19.61;100.00
8575;BME280;4325;42.520;27.448;2023-05-25T05:51:03;101054.22;;;19.29;100.00
8575;BME280;4325;42.520;27.448;2023-05-25T05:53:30;101045.28;;;18.93;100.00
8575;BME280;4325;42.520;27.448;2023-05-25T05:55:59;101050.34;;;18.91;100.00
8575;BME280;4325;42.520;27.448;2023-05-25T05:58:26;101048.69;;;18.90;100.00
8575;BME280;4325;42.520;27.448;2023-05-25T06:00:54;101050.59;;;18.81;100.00
8575;BME280;4325;42.520;27.448;2023-05-25T06:03:22;101043.38;;;19.10;100.00
8575;BME280;4325;42.520;27.448;2023-05-25T06:05:49;101053.06;;;19.30;100.00
8575;BME280;4325;42.520;27.448;2023-05-25T06:08:17;101047.88;;;19.37;100.00
8575;BME280;4325;42.520;27.448;2023-05-25T06:10:45;101055.09;;;19.38;100.00
8575;BME280;4325;42.520;27.448;2023-05-25T06:13:12;101056.09;;;19.59;100.00
8575;BME280;4325;42.520;27.448;2023-05-25T06:15:39;101051.75;;;20.01;100.00
8575;BME280;4325;42.520;27.448;2023-05-25T06:18:06;101051.75;;;20.44;100.00
8575;BME280;4325;42.520;27.448;2023-05-25T06:20:33;101053.72;;;20.98;100.00
8575;BME280;4325;42.520;27.448;2023-05-25T06:23:00;101046.16;;;21.66;100.00
8575;BME280;4325;42.520;27.448;2023-05-25T06:25:29;101062.41;;;22.14;100.00
8575;BME280;4325;42.520;27.448;2023-05-25T06:27:56;101066.94;;;22.72;100.00
8575;BME280;4325;42.520;27.448;2023-05-25T06:30:23;101067.69;;;23.17;100.00
8575;BME280;4325;42.520;27.448;2023-05-25T06:32:50;101070.53;;;23.53;100.00
8575;BME280;4325;42.520;27.448;2023-05-25T06:35:17;101072.56;;;23.93;100.00
8575;BME280;4325;42.520;27.448;2023-05-25T06:37:45;101068.13;;;24.04;100.00
8575;BME280;4325;42.520;27.448;2023-05-25T06:40:13;101065.34;;;24.32;100.00
8575;BME280;4325;42.520;27.448;2023-05-25T06:42:41;101069.25;;;24.70;100.00
8575;BME280;4325;42.520;27.448;2023-05-25T06:45:09;101078.00;;;24.97;96.47
8575;BME280;4325;42.520;27.448;2023-05-25T06:47:36;101076.56;;;25.03;92.89
8575;BME280;4325;42.520;27.448;2023-05-25T06:50:04;101073.19;;;24.97;94.05
8575;BME280;4325;42.520;27.448;2023-05-25T06:52:31;101070.94;;;25.03;94.47
8575;BME280;4325;42.520;27.448;2023-05-25T06:54:58;101079.00;;;25.20;94.14
8575;BME280;4325;42.520;27.448;2023-05-25T06:57:25;101082.44;;;25.44;94.74
8575;BME280;4325;42.520;27.448;2023-05-25T06:59:53;101078.88;;;25.63;92.38
8575;BME280;4325;42.520;27.448;2023-05-25T07:02:21;101084.25;;;25.52;86.21
8575;BME280;4325;42.520;27.448;2023-05-25T07:04:48;101083.63;;;25.28;88.38
8575;BME280;4325;42.520;27.448;2023-05-25T07:07:15;101081.72;;;25.01;88.21
8575;BME280;4325;42.520;27.448;2023-05-25T07:09:42;101081.38;;;24.74;89.62
8575;BME280;4325;42.520;27.448;2023-05-25T07:12:10;101087.41;;;24.33;92.47
8575;BME280;4325;42.520;27.448;2023-05-25T07:14:37;101085.38;;;23.94;97.76
8575;BME280;4325;42.520;27.448;2023-05-25T07:17:05;101085.78;;;23.56;97.98
8575;BME280;4325;42.520;27.448;2023-05-25T07:19:32;101081.94;;;23.36;100.00
8575;BME280;4325;42.520;27.448;2023-05-25T07:21:59;101080.31;;;23.35;100.00
8575;BME280;4325;42.520;27.448;2023-05-25T07:24:26;101091.50;;;23.59;98.97
8575;BME280;4325;42.520;27.448;2023-05-25T07:26:53;101090.56;;;23.68;96.91
8575;BME280;4325;42.520;27.448;2023-05-25T07:29:20;101093.69;;;23.66;96.73
8575;BME280;4325;42.520;27.448;2023-05-25T07:31:47;101095.66;;;23.90;96.85
8575;BME280;4325;42.520;27.448;2023-05-25T07:34:15;101093.53;;;23.99;95.36
8575;BME280;4325;42.520;27.448;2023-05-25T07:36:42;101094.69;;;23.98;94.06
8575;BME280;4325;42.520;27.448;2023-05-25T07:41:54;101085.69;;;24.28;94.33
8575;BME280;4325;42.520;27.448;2023-05-25T07:44:21;101094.00;;;24.01;93.17
8575;BME280;4325;42.520;27.448;2023-05-25T07:46:48;101092.31;;;23.72;94.25
8575;BME280;4325;42.520;27.448;2023-05-25T07:49:16;101092.16;;;23.81;95.57
8575;BME280;4325;42.520;27.448;2023-05-25T07:51:44;101083.75;;;23.93;94.31
8575;BME280;4325;42.520;27.448;2023-05-25T07:54:11;101082.50;;;24.30;93.58
8575;BME280;4325;42.520;27.448;2023-05-25T07:56:38;101098.69;;;24.92;90.49
8575;BME280;4325;42.520;27.448;2023-05-25T07:59:05;101095.00;;;25.19;85.34
8575;BME280;4325;42.520;27.448;2023-05-25T08:01:32;101089.38;;;25.66;82.44
8575;BME280;4325;42.520;27.448;2023-05-25T08:04:00;101094.34;;;26.07;79.40
8575;BME280;4325;42.520;27.448;2023-05-25T08:06:28;101092.38;;;26.46;76.25
8575;BME280;4325;42.520;27.448;2023-05-25T08:08:56;101087.00;;;26.76;75.64
8575;BME280;4325;42.520;27.448;2023-05-25T08:11:23;101084.88;;;27.37;75.12
8575;BME280;4325;42.520;27.448;2023-05-25T08:13:52;101087.84;;;27.71;64.63
8575;BME280;4325;42.520;27.448;2023-05-25T08:16:18;101089.16;;;28.03;68.49
8575;BME280;4325;42.520;27.448;2023-05-25T08:18:45;101084.78;;;28.35;65.90
8575;BME280;4325;42.520;27.448;2023-05-25T08:21:12;101085.88;;;28.60;65.87
8575;BME280;4325;42.520;27.448;2023-05-25T08:23:41;101093.06;;;28.58;59.68
8575;BME280;4325;42.520;27.448;2023-05-25T08:26:08;101085.13;;;28.63;59.47
8575;BME280;4325;42.520;27.448;2023-05-25T08:28:35;101075.91;;;29.07;59.57
8575;BME280;4325;42.520;27.448;2023-05-25T08:31:03;101079.97;;;30.15;55.08
8575;BME280;4325;42.520;27.448;2023-05-25T08:33:29;101073.03;;;31.55;46.41
8575;BME280;4325;42.520;27.448;2023-05-25T08:35:56;101068.47;;;32.97;43.33
8575;BME280;4325;42.520;27.448;2023-05-25T08:38:24;101066.13;;;32.85;42.93
8575;BME280;4325;42.520;27.448;2023-05-25T08:41:01;101069.53;;;32.58;42.40
8575;BME280;4325;42.520;27.448;2023-05-25T08:43:29;101074.47;;;34.35;39.91
8575;BME280;4325;42.520;27.448;2023-05-25T08:46:00;101065.78;;;35.76;35.03
8575;BME280;4325;42.520;27.448;2023-05-25T08:48:29;101062.03;;;36.41;33.57
8575;BME280;4325;42.520;27.448;2023-05-25T08:51:00;101068.63;;;36.38;33.69
8575;BME280;4325;42.520;27.448;2023-05-25T08:53:33;101074.38;;;35.53;35.09
8575;BME280;4325;42.520;27.448;2023-05-25T08:56:04;101065.69;;;34.83;34.74
8575;BME280;4325;42.520;27.448;2023-05-25T08:58:41;101064.47;;;34.24;36.85
8575;BME280;4325;42.520;27.448;2023-05-25T09:01:14;101050.34;;;33.35;38.19
8575;BME280;4325;42.520;27.448;2023-05-25T09:03:42;101048.84;;;32.61;40.02
8575;BME280;4325;42.520;27.448;2023-05-25T09:06:10;101054.25;;;33.55;38.09
8575;BME280;4325;42.520;27.448;2023-05-25T09:08:37;101052.53;;;34.36;36.56
8575;BME280;4325;42.520;27.448;2023-05-25T09:11:06;101062.38;;;34.28;35.51
8575;BME280;4325;42.520;27.448;2023-05-25T09:13:34;101056.50;;;33.71;36.53
8575;BME280;4325;42.520;27.448;2023-05-25T09:16:02;101054.56;;;34.02;36.08
8575;BME280;4325;42.520;27.448;2023-05-25T09:18:29;101062.56;;;34.74;33.51
8575;BME280;4325;42.520;27.448;2023-05-25T09:20:56;101058.47;;;37.09;31.02
8575;BME280;4325;42.520;27.448;2023-05-25T09:23:22;101060.06;;;38.32;26.92
8575;BME280;4325;42.520;27.448;2023-05-25T09:25:50;101063.91;;;39.05;25.46
8575;BME280;4325;42.520;27.448;2023-05-25T09:28:19;101060.47;;;39.35;25.68
8575;BME280;4325;42.520;27.448;2023-05-25T09:30:46;101057.69;;;41.35;24.51
8575;BME280;4325;42.520;27.448;2023-05-25T09:33:14;101058.41;;;41.09;23.63
8575;BME280;4325;42.520;27.448;2023-05-25T09:35:42;101057.78;;;40.74;23.65
8575;BME280;4325;42.520;27.448;2023-05-25T09:38:12;101060.88;;;40.58;24.45
8575;BME280;4325;42.520;27.448;2023-05-25T09:40:39;101055.03;;;39.96;23.84
8575;BME280;4325;42.520;27.448;2023-05-25T09:43:06;101059.31;;;38.69;25.91
8575;BME280;4325;42.520;27.448;2023-05-25T09:45:35;101055.38;;;37.97;27.09
8575;BME280;4325;42.520;27.448;2023-05-25T09:48:04;101050.34;;;36.36;28.94
8575;BME280;4325;42.520;27.448;2023-05-25T09:50:32;101059.59;;;35.35;30.11
8575;BME280;4325;42.520;27.448;2023-05-25T09:52:59;101052.47;;;34.09;32.29
8575;BME280;4325;42.520;27.448;2023-05-25T09:55:27;101056.66;;;34.31;32.34
8575;BME280;4325;42.520;27.448;2023-05-25T09:57:54;101045.25;;;35.19;30.44
8575;BME280;4325;42.520;27.448;2023-05-25T10:00:22;101056.19;;;35.66;29.07
8575;BME280;4325;42.520;27.448;2023-05-25T10:02:51;101040.66;;;35.91;29.22
8575;BME280;4325;42.520;27.448;2023-05-25T10:05:18;101042.88;;;35.13;29.88
8575;BME280;4325;42.520;27.448;2023-05-25T10:07:45;101034.97;;;34.71;30.42
8575;BME280;4325;42.520;27.448;2023-05-25T10:10:13;101032.56;;;34.70;31.70
8575;BME280;4325;42.520;27.448;2023-05-25T10:12:42;101033.09;;;35.61;30.24
8575;BME280;4325;42.520;27.448;2023-05-25T10:15:11;101030.09;;;36.11;29.24
8575;BME280;4325;42.520;27.448;2023-05-25T10:17:42;101018.75;;;37.76;28.17
8575;BME280;4325;42.520;27.448;2023-05-25T10:20:12;101008.25;;;38.68;26.89
8575;BME280;4325;42.520;27.448;2023-05-25T10:22:43;101012.13;;;39.58;25.79
8575;BME280;4325;42.520;27.448;2023-05-25T10:25:18;101015.34;;;40.16;24.66
8575;BME280;4325;42.520;27.448;2023-05-25T10:27:52;101015.72;;;41.65;23.85
8575;BME280;4325;42.520;27.448;2023-05-25T10:30:22;101008.81;;;41.26;22.38
8575;BME280;4325;42.520;27.448;2023-05-25T10:32:51;101016.59;;;39.94;23.45
8575;BME280;4325;42.520;27.448;2023-05-25T10:35:20;101009.50;;;40.51;24.02
8575;BME280;4325;42.520;27.448;2023-05-25T10:37:50;101014.44;;;39.17;24.32
8575;BME280;4325;42.520;27.448;2023-05-25T10:40:18;101000.03;;;37.75;26.36
8575;BME280;4325;42.520;27.448;2023-05-25T10:42:46;101004.53;;;37.59;26.32
8575;BME280;4325;42.520;27.448;2023-05-25T10:45:14;101007.22;;;38.08;25.97
8575;BME280;4325;42.520;27.448;2023-05-25T10:47:42;101001.41;;;37.54;25.86
8575;BME280;4325;42.520;27.448;2023-05-25T10:50:31;100998.00;;;35.87;27.69
8575;BME280;4325;42.520;27.448;2023-05-25T10:53:01;101007.47;;;36.39;27.40
8575;BME280;4325;42.520;27.448;2023-05-25T10:55:41;101020.28;;;35.92;27.62
8575;BME280;4325;42.520;27.448;2023-05-25T10:58:09;101003.59;;;36.50;27.57
8575;BME280;4325;42.520;27.448;2023-05-25T11:00:37;101001.00;;;37.23;26.16
8575;BME280;4325;42.520;27.448;2023-05-25T11:03:04;100998.59;;;37.66;25.73
8575;BME280;4325;42.520;27.448;2023-05-25T11:05:38;100992.41;;;38.25;24.90
8575;BME280;4325;42.520;27.448;2023-05-25T11:08:07;100996.78;;;38.30;24.70
8575;BME280;4325;42.520;27.448;2023-05-25T11:10:57;100983.09;;;39.35;23.97
8575;BME280;4325;42.520;27.448;2023-05-25T11:13:34;100990.88;;;41.04;22.14
8575;BME280;4325;42.520;27.448;2023-05-25T11:16:19;100973.94;;;42.42;20.32
8575;BME280;4325;42.520;27.448;2023-05-25T11:18:51;100979.38;;;43.06;18.90
8575;BME280;4325;42.520;27.448;2023-05-25T11:21:42;100981.34;;;42.07;20.28
8575;BME280;4325;42.520;27.448;2023-05-25T11:24:11;100980.38;;;42.19;19.83
8575;BME280;4325;42.520;27.448;2023-05-25T11:26:52;100984.44;;;41.85;19.99
8575;BME280;4325;42.520;27.448;2023-05-25T11:29:20;100991.88;;;43.88;19.88
8575;BME280;4325;42.520;27.448;2023-05-25T11:31:52;100996.00;;;45.85;18.06
8575;BME280;4325;42.520;27.448;2023-05-25T11:34:20;101005.22;;;47.56;16.61
8575;BME280;4325;42.520;27.448;2023-05-25T11:36:52;101014.78;;;49.40;16.04
8575;BME280;4325;42.520;27.448;2023-05-25T11:39:20;101011.81;;;49.51;14.86
8575;BME280;4325;42.520;27.448;2023-05-25T11:41:48;101002.09;;;47.71;15.69
8575;BME280;4325;42.520;27.448;2023-05-25T11:44:24;101003.31;;;45.80;16.75
8575;BME280;4325;42.520;27.448;2023-05-25T11:46:53;100999.06;;;43.78;17.95
8575;BME280;4325;42.520;27.448;2023-05-25T11:49:21;100998.88;;;43.11;18.39
8575;BME280;4325;42.520;27.448;2023-05-25T11:51:51;101002.41;;;42.82;18.93
8575;BME280;4325;42.520;27.448;2023-05-25T11:54:26;100989.88;;;42.52;18.94
8575;BME280;4325;42.520;27.448;2023-05-25T11:56:54;100995.47;;;42.89;19.18
8575;BME280;4325;42.520;27.448;2023-05-25T11:59:23;100992.69;;;42.70;18.93
8575;BME280;4325;42.520;27.448;2023-05-25T12:01:58;101002.34;;;41.71;19.44
8575;BME280;4325;42.520;27.448;2023-05-25T12:04:26;100995.34;;;40.56;20.61
8575;BME280;4325;42.520;27.448;2023-05-25T12:07:02;101002.97;;;39.64;21.34
8575;BME280;4325;42.520;27.448;2023-05-25T12:09:29;101008.13;;;40.64;21.01
8575;BME280;4325;42.520;27.448;2023-05-25T12:11:56;101004.06;;;40.53;20.78
8575;BME280;4325;42.520;27.448;2023-05-25T12:14:24;101000.28;;;40.56;21.24
8575;BME280;4325;42.520;27.448;2023-05-25T12:16:51;101001.84;;;39.83;21.80
8575;BME280;4325;42.520;27.448;2023-05-25T12:19:19;101000.94;;;40.38;21.76
8575;BME280;4325;42.520;27.448;2023-05-25T12:21:47;100986.72;;;40.56;21.50
8575;BME280;4325;42.520;27.448;2023-05-25T12:24:17;100985.66;;;40.10;21.36
8575;BME280;4325;42.520;27.448;2023-05-25T12:26:48;100977.13;;;38.57;22.62
8575;BME280;4325;42.520;27.448;2023-05-25T12:29:16;100971.88;;;37.73;23.61
8575;BME280;4325;42.520;27.448;2023-05-25T12:31:43;100970.97;;;37.47;23.85
8575;BME280;4325;42.520;27.448;2023-05-25T12:34:11;100966.50;;;38.04;23.71
8575;BME280;4325;42.520;27.448;2023-05-25T12:36:41;100970.97;;;37.76;23.97
8575;BME280;4325;42.520;27.448;2023-05-25T12:39:09;100969.69;;;37.64;24.00
8575;BME280;4325;42.520;27.448;2023-05-25T12:41:45;100962.69;;;38.48;22.98
8575;BME280;4325;42.520;27.448;2023-05-25T12:44:20;100964.91;;;39.63;22.49
8575;BME280;4325;42.520;27.448;2023-05-25T12:46:47;100971.72;;;40.52;21.60
8575;BME280;4325;42.520;27.448;2023-05-25T12:49:28;100962.19;;;41.68;20.78
8575;BME280;4325;42.520;27.448;2023-05-25T12:51:55;100963.59;;;42.68;19.96
8575;BME280;4325;42.520;27.448;2023-05-25T12:54:39;100959.84;;;43.10;19.57
8575;BME280;4325;42.520;27.448;2023-05-25T12:57:10;100971.19;;;43.75;18.91
8575;BME280;4325;42.520;27.448;2023-05-25T12:59:39;100966.25;;;44.49;18.28
8575;BME280;4325;42.520;27.448;2023-05-25T13:02:06;100960.22;;;44.67;17.77
8575;BME280;4325;42.520;27.448;2023-05-25T13:04:34;100952.50;;;44.00;18.50
8575;BME280;4325;42.520;27.448;2023-05-25T13:07:02;100948.94;;;44.69;17.88